EDDC/DRS METAR and TAF weather

Enter ICAO airport designator
Station Type Date Time Source
EDDC METAR 2018/04/21 11:20 UTC NOAA

EDDC 211120Z 31010KT 280V340 CAVOK 21/08 Q1020 NOSIG


Station Type Date Time Source
EDDC Decoded METAR 2018/04/21 11:20 UTC NOAA

Dresden-Klotzsche, Germany (EDDC) 51-08N 013-45E 232M
Apr 21, 2018 - 07:20 AM EDT / 2018.04.21 1120 UTC
Wind: from the NW (310 degrees) at 12 MPH (10 KT) (direction variable):0
Visibility: greater than 7 mile(s):0
Temperature: 69 F (21 C)
Dew Point: 46 F (8 C)
Relative Humidity: 43%
Pressure (altimeter): 30.12 in. Hg (1020 hPa)
ob: EDDC 211120Z 31010KT 280V340 CAVOK 21/08 Q1020 NOSIG
cycle: 11

Station Type Date Time Source
EDDC TAF 2018/04/21 12:27 UTC NOAA

TAF EDDC 211100Z 2112/2212 33008KT CAVOK
BECMG 2118/2120 16004KT


Example: see airport list